Laneport, Texas
Current Conditions -  °F | °C
As of 10:55 PM on Monday 20 Oct 2014 (Local Time) from KGRK Reporting Station
Few Clouds Few Clouds  
Wind Chill: 68°   Ceiling: Unl
Heat Index: 68°   Visibility: 7mi
Dew Point: 57°   Wind: 7mph
Humidity: 68%   Direction: 110°ESE
Pressure: 30.06"   Gusts: NA
Location:  30.5793°N, 97.5096°W
Report Text: KGRK 210355Z 11006KT 7SM FEW200 20/14 A3006 RMK SLP178
Loading
Personal Weather Stations






























Interactive Weather Map
Tropical Storm Tracking
New forecast layout! Learn more

10-Day Weather Forecast

Advertisements
Track Severe Weather on mobile